Amissville, Virginia
Current Conditions -  °F | °C
As of 8:35 AM on Wednesday 22 Oct 2014 (Local Time) from KCJR Reporting Station
Light Rain Light Rain  
Wind Chill: 12°   Ceiling: 3200
Heat Index: 12°   Visibility: 10mi
Dew Point: 10°   Wind: 8mph
Humidity: 88%   Direction: 340°NNW
Pressure: 29.95"   Gusts: NA
Location:  38.67°N, 77.99°W
Report Text: KCJR 221235Z AUTO 34007KT 10SM -RA BKN032 BKN050 OVC065 12/10 A2995 RMK AO2
Loading
Personal Weather Stations






























Interactive Weather Map
Tropical Storm Tracking
New forecast layout! Learn more

10-Day Weather Forecast

Advertisements
Track Severe Weather on mobile